Terminal Aerodrome Forecast
Issued by NWS

Home | Current Version | Previous Version | Text Only | Print | Product List | Glossary On
Versions: 1 2 3 4 5 6 7 8 9 10 11 12 13 14 15 16
000
FTUS43 KPAH 311700
TAFCGI
TAF
KCGI 311720Z 3118/0118 19004KT P6SM SCT025 BKN050
     FM312300 VRB02KT P6SM SCT050 BKN100
      TEMPO 0108/0112 5SM BR
     FM011500 VRB03KT P6SM SCT025=

USA.gov is the U.S. government's official web portal to all federal, state and local government web resources and services.